Aviation Digital Data Service (ADDS)

Output produced by METARs form (2105 UTC 06 December 2019)
found at http://www.aviationweather.gov/metar/data/
 
Forecast for: LERT (ROTA NAVAL STATI, ES)
Text: TAF LERT 062000Z 0621/0706 10006KT CAVOK
Forecast period: 2100 UTC 06 December 2019 to 0600 UTC 07 December 2019
Forecast type: FROM: standard forecast or significant change
Winds: from the E (100 degrees) at 7 MPH (6 knots; 3.1 m/s)
Visibility: 6 or more miles 10+ km)
Ceiling: unknown
Clouds: missing
Weather: NSW  (no significant weather)